メインページ
METAR-TAF:

METAR-TAF

空港 :

Fort Chipewyan, アルバータ州, カナダ

緯度: 58-46N, 経度: 111-07W, 海抜: 232m

現時点の気象観測

当レポートは1時間8分前の08:00(UTC)に作成
西の風 6kt
気温 -4°C
湿度 80%
気圧 994 hPa
視程: 14.5km
晴天

METAR: CYPY 220800Z AUTO 27006KT 9SM CLR M04/M07 A2934 RMK SLP951

時間: 02:08 (09:08 UTC)

予報

当レポートは5時間29分前の03:39(UTC)に作成
予報は22日の 03時(UTC)から 22日の 07時(UTC)まで有効
変向風 3kt
視程: 10km
高度6000ftの雲は散在している
高度12000ftの千切れ雲あり
22日の 03時(UTC)から 22日の 07時(UTC)まで一時的に
視程: 8.0km
高度6000ftの千切れ雲あり
高度12000ftの曇り
小雪

TAF: CYPY 220339Z 2203/2207 VRB03KT P6SM SCT060 BKN120 TEMPO 2203/2207 5SM -SN BKN060 OVC120 RMK FCST BASED ON AUTO OBS. NXT FCST WILL BE ISSUED AT 221245Z

4,000以上の空港の気象観測と天気予報(METAR報とTAF報)

利用可能な観測所は地図上に黄色い丸と赤い丸で示す。

丸の上にカーソルを重ねると観測所名を参照できる。

次にクリックすると気象観測と天気予報を参照できる。

マップの切り替え:黒色「×」印の緑ボタンをクリックして拡大、「-」印の緑ボタンをクリックして縮小、緑色の三角印をクリックして隣りの地図に切り替え


METAR-TAF: